Giddings, TX (78942)

8:47 AM CST on January 29, 2015 (GMT -0600)
Whispering Oaks | Change Station
CLOSE
Current Station
Personal Weather Station
Location: Giddings, TX
Elevation: 505 ft
Nearby Weather Stations
Active Advisory: Dense Fog Advisory Active Notice: Record Report

Elev 505 ft 30.17 °N, 96.92 °W | Updated 1 minute ago

Overcast
Overcast
61.3 °F
Feels Like 61.3 °F
N
4.5
Wind Variable Wind from SW
Gusts 4.5 mph

Today
High -- | Low -- °F
--% Chance of Precip.
Yesterday
High -- | Low -- °F
Precip. -- in
7:20 AM 6:01 PM
Waxing Gibbous, 74% visible
Pressure 30.26 in
Visibility 7.0 miles
Clouds Overcast 500 ft
Dew Point 61 °F
Humidity 98%
Rainfall 0.00 in
Snow Depth Not available.
UV 0 out of 12
Pollen 6.60 out of 12
Air Quality Not available.
Flu Activity Not available.
METAR KGYB 291435Z AUTO 00000KT 7SM OVC005 16/15 A3026 RMK AO2 T01580150

More Conditions Fewer Conditions

Pressure 30.26 in
Visibility 7.0 miles
Clouds Overcast 500 ft
Dew Point 61 °F
Humidity 98%
Rainfall 0.00 in
Snow Depth Not available.
UV 0 out of 12
Pollen 6.60 out of 12
Air Quality Not available.
Flu Activity Not available.
METAR KGYB 291435Z AUTO 00000KT 7SM OVC005 16/15 A3026 RMK AO2 T01580150

More Conditions Fewer Conditions

Nowcast | as of 6:31 am CST on January 29, 2015

dense fog advisory in effect until 9 am CST this morning... Areas of dense fog will persist through 9 am. Visibilities of one quarter mile or less can be expected. If driving...slow down...use low beam headlights...and leave plenty of distance ahead of you.

×

10-Day Weather Forecast

Almanac

Astronomy

Jan. 29, 2015 Rise Set
Actual Time
Civil Twilight
Nautical Twilight
Astronomical Twilight
Moon
Length of Visible Light
Length of Day
Tomorrow will be .
, % of the Moon is Illuminated

Today's Extremes

State Highs State Lows

Community

WunderPhotos

Upload Photos

1,791,443 photos uploaded!

WunderBlogs® & News

Nearby

Air Quality

  Air Quality AQ Index Pollutant
Not available.

Snow Depth

Station Depth Elevation

Earthquake Activity

City Distance Mag. Time & Date
Minimum magnitude displayed is 2.5.

Coastal Water Temperatures

Place Temperature

Nearby Weather Stations